Time;durP1;ratioP1;P1;durP2;ratioP2;P2;SDS_P1;SDS_P2;PMS_P1;PMS_P2;Temp;Humidity;BMP_temperature;BMP_pressure;BME280_temperature;BME280_humidity;BME280_pressure;Samples;Min_cycle;Max_cycle;Signal;HPM_P1;HPM_P2
2021/06/14 00:01:29;;;;;;;19.40;17.80;;;12.50;99.90;;;;;;5034859;28;20500;-73
2021/06/14 00:03:56;;;;;;;19.10;17.60;;;12.40;99.90;;;;;;5038202;28;20511;-74
2021/06/14 00:06:22;;;;;;;19.20;17.40;;;12.40;99.90;;;;;;5031741;28;20455;-74
2021/06/14 00:08:49;;;;;;;19.73;18.00;;;12.30;99.90;;;;;;5037163;28;21042;-74
2021/06/14 00:11:17;;;;;;;19.37;17.87;;;12.30;99.90;;;;;;5031091;28;20464;-74
2021/06/14 00:13:46;;;;;;;19.07;17.67;;;12.20;99.90;;;;;;5036773;28;20475;-74
2021/06/14 00:16:13;;;;;;;21.90;19.90;;;12.20;99.90;;;;;;5032296;28;20806;-74
2021/06/14 00:18:40;;;;;;;20.27;18.50;;;12.10;99.90;;;;;;5042462;28;20475;-74
2021/06/14 00:21:09;;;;;;;19.77;17.73;;;12.10;99.90;;;;;;5040656;28;20474;-74
2021/06/14 00:23:37;;;;;;;21.03;19.23;;;12.00;99.90;;;;;;5031188;28;20471;-74
2021/06/14 00:26:09;;;;;;;20.00;18.50;;;12.00;99.90;;;;;;5031919;28;21484;-75
2021/06/14 00:28:36;;;;;;;19.13;17.73;;;12.00;99.90;;;;;;5034857;28;20468;-74
2021/06/14 00:31:04;;;;;;;19.10;17.37;;;12.00;99.90;;;;;;5037805;28;20495;-74
2021/06/14 00:33:32;;;;;;;20.03;18.00;;;12.00;99.90;;;;;;5038134;28;20842;-75
2021/06/14 00:35:59;;;;;;;20.73;18.70;;;12.00;99.90;;;;;;5031891;28;20461;-74
2021/06/14 00:38:26;;;;;;;19.53;17.93;;;12.00;99.90;;;;;;5038340;28;20463;-74
2021/06/14 00:40:53;;;;;;;19.50;17.70;;;12.00;99.90;;;;;;5037350;28;20839;-76
2021/06/14 00:43:20;;;;;;;21.17;18.40;;;11.90;99.90;;;;;;5034145;28;20469;-76
2021/06/14 00:45:49;;;;;;;19.57;17.77;;;12.00;99.90;;;;;;5036685;28;21010;-76
2021/06/14 00:48:18;;;;;;;19.77;18.33;;;12.00;99.90;;;;;;5032251;28;20819;-75
2021/06/14 00:50:48;;;;;;;21.50;19.77;;;11.90;99.90;;;;;;5037290;28;21021;-76
2021/06/14 00:53:19;;;;;;;19.47;17.90;;;11.90;99.90;;;;;;5034510;28;20464;-74
2021/06/14 00:55:46;;;;;;;20.20;18.70;;;11.90;99.90;;;;;;5039479;28;20482;-74
2021/06/14 00:58:13;;;;;;;19.97;18.40;;;11.80;99.90;;;;;;5033984;28;20459;-75
2021/06/14 01:00:41;;;;;;;20.50;18.50;;;11.70;99.90;;;;;;5033348;28;20456;-74
2021/06/14 01:03:08;;;;;;;20.43;18.63;;;11.70;99.90;;;;;;5033519;28;20819;-75
2021/06/14 01:05:40;;;;;;;20.00;18.60;;;11.60;99.90;;;;;;5035518;28;20900;-76
2021/06/14 01:08:08;;;;;;;20.87;19.03;;;11.60;99.90;;;;;;5040939;28;20470;-74
2021/06/14 01:10:35;;;;;;;21.20;19.33;;;11.50;99.90;;;;;;5031730;28;20495;-75
2021/06/14 01:13:19;;;;;;;19.97;18.20;;;11.40;99.90;;;;;;5032557;28;20449;-75
2021/06/14 01:15:59;;;;;;;22.57;20.23;;;11.40;99.90;;;;;;5032320;28;20551;-73
2021/06/14 01:18:32;;;;;;;22.07;20.07;;;11.30;99.90;;;;;;5035180;28;20991;-76
2021/06/14 01:21:09;;;;;;;21.10;19.53;;;11.30;99.90;;;;;;5035009;28;20464;-74
2021/06/14 01:24:09;;;;;;;21.40;19.57;;;11.20;99.90;;;;;;5031959;28;20467;-74
2021/06/14 01:26:41;;;;;;;20.07;18.60;;;11.20;99.90;;;;;;5024456;28;20472;-74
2021/06/14 01:29:11;;;;;;;20.73;19.00;;;11.20;99.90;;;;;;5035140;28;20487;-74
2021/06/14 01:31:41;;;;;;;21.37;19.40;;;11.20;99.90;;;;;;5031484;28;20487;-74
2021/06/14 01:34:08;;;;;;;21.33;19.27;;;11.10;99.90;;;;;;5034654;28;20971;-74
2021/06/14 01:36:37;;;;;;;20.90;19.17;;;11.10;99.90;;;;;;5033784;28;20464;-77
2021/06/14 01:39:07;;;;;;;20.67;19.00;;;11.20;99.90;;;;;;5040599;28;20471;-75
2021/06/14 01:41:34;;;;;;;18.47;16.97;;;11.10;99.90;;;;;;5038642;28;20496;-77
2021/06/14 01:44:03;;;;;;;19.50;17.90;;;11.20;99.90;;;;;;5034050;28;20486;-77
2021/06/14 01:46:41;;;;;;;19.23;17.33;;;11.30;99.90;;;;;;5036420;28;20542;-74
2021/06/14 01:49:11;;;;;;;21.10;19.20;;;11.30;99.90;;;;;;5035217;28;20468;-74
2021/06/14 01:51:40;;;;;;;22.07;18.47;;;11.30;99.90;;;;;;5035835;28;20480;-75
2021/06/14 01:54:08;;;;;;;20.13;18.30;;;11.20;99.90;;;;;;5032172;28;20462;-74
2021/06/14 01:56:37;;;;;;;20.83;19.10;;;11.10;99.90;;;;;;5035863;28;20820;-75
2021/06/14 01:59:06;;;;;;;23.87;20.33;;;11.10;99.90;;;;;;5031062;28;20469;-74
2021/06/14 02:01:37;;;;;;;20.90;19.23;;;11.00;99.90;;;;;;5034581;28;20464;-75
2021/06/14 02:04:05;;;;;;;22.07;20.00;;;10.90;99.90;;;;;;5034736;28;20490;-75
2021/06/14 02:06:34;;;;;;;22.87;20.73;;;10.90;99.90;;;;;;5038907;28;20460;-74
2021/06/14 02:09:08;;;;;;;21.97;19.87;;;10.90;99.90;;;;;;5029733;28;20471;-77
2021/06/14 02:11:37;;;;;;;23.47;20.80;;;10.90;99.90;;;;;;5037954;28;20467;-75
2021/06/14 02:14:04;;;;;;;25.53;20.60;;;10.80;99.90;;;;;;5036052;28;20561;-74
2021/06/14 02:16:31;;;;;;;22.60;20.37;;;10.80;99.90;;;;;;5037957;28;20470;-76
2021/06/14 02:19:00;;;;;;;24.07;21.90;;;10.80;99.90;;;;;;5040800;28;20772;-75
2021/06/14 02:21:27;;;;;;;22.67;20.70;;;10.70;99.90;;;;;;5033118;28;22420;-75
2021/06/14 02:23:54;;;;;;;22.43;20.13;;;10.70;99.90;;;;;;5035698;28;20833;-77
2021/06/14 02:26:21;;;;;;;23.10;21.13;;;10.70;99.90;;;;;;5033925;28;20475;-75
2021/06/14 02:28:48;;;;;;;21.73;19.93;;;10.70;99.90;;;;;;5036595;28;20875;-74
2021/06/14 02:31:14;;;;;;;29.70;20.90;;;10.50;99.90;;;;;;5035690;28;20889;-74
2021/06/14 02:33:43;;;;;;;28.40;21.70;;;10.50;99.90;;;;;;5039268;28;20467;-77
2021/06/14 02:36:14;;;;;;;25.70;20.43;;;10.50;99.90;;;;;;5039358;28;20480;-77
2021/06/14 02:38:41;;;;;;;23.50;21.33;;;10.60;99.90;;;;;;5035002;28;20727;-74
2021/06/14 02:41:09;;;;;;;28.23;20.70;;;10.70;99.90;;;;;;5041689;28;21137;-75
2021/06/14 02:43:37;;;;;;;34.53;22.40;;;10.70;99.90;;;;;;5035336;28;20458;-74
2021/06/14 02:46:04;;;;;;;20.90;18.93;;;10.70;99.90;;;;;;5042062;28;20492;-73
2021/06/14 02:48:33;;;;;;;21.73;19.53;;;10.70;99.90;;;;;;5033557;28;20975;-75
2021/06/14 02:51:02;;;;;;;25.10;21.00;;;10.80;99.90;;;;;;5040253;28;20498;-74
2021/06/14 02:53:31;;;;;;;22.83;19.60;;;10.70;99.90;;;;;;5039097;28;20484;-75
2021/06/14 02:56:05;;;;;;;27.27;20.00;;;10.80;99.90;;;;;;5039798;28;20479;-76
2021/06/14 02:58:35;;;;;;;22.80;20.70;;;10.80;99.90;;;;;;5036533;28;20999;-76
2021/06/14 03:01:04;;;;;;;28.60;19.50;;;10.80;99.90;;;;;;5039245;28;20478;-74
2021/06/14 03:03:31;;;;;;;24.87;21.03;;;10.80;99.90;;;;;;5037457;28;20484;-75
2021/06/14 03:05:58;;;;;;;26.13;22.27;;;10.90;99.90;;;;;;5029429;28;20471;-75
2021/06/14 03:08:26;;;;;;;31.60;22.60;;;11.00;99.90;;;;;;5041304;28;20502;-74
2021/06/14 03:10:55;;;;;;;26.70;23.47;;;11.10;99.90;;;;;;5039120;28;20518;-75
2021/06/14 03:13:22;;;;;;;29.23;23.23;;;11.30;99.90;;;;;;5035000;28;20460;-75
2021/06/14 03:15:50;;;;;;;26.33;22.00;;;11.40;99.90;;;;;;5037730;28;20468;-75
2021/06/14 03:18:18;;;;;;;33.80;21.87;;;11.60;99.90;;;;;;5030770;28;20863;-74
2021/06/14 03:20:46;;;;;;;28.83;22.40;;;11.80;99.90;;;;;;5035581;28;20827;-76
2021/06/14 03:23:15;;;;;;;36.70;22.73;;;11.90;99.90;;;;;;5035687;28;20910;-75
2021/06/14 03:25:43;;;;;;;35.00;22.27;;;12.10;99.90;;;;;;5036948;28;20490;-78
2021/06/14 03:28:13;;;;;;;28.67;21.40;;;12.20;99.90;;;;;;5036229;28;20830;-76
2021/06/14 03:30:42;;;;;;;29.40;22.60;;;12.20;99.90;;;;;;5035353;28;20498;-75
2021/06/14 03:33:10;;;;;;;36.63;22.80;;;12.20;99.90;;;;;;5039027;28;20461;-75
2021/06/14 03:35:37;;;;;;;24.63;22.00;;;12.30;99.90;;;;;;5038881;28;20461;-74
2021/06/14 03:38:05;;;;;;;28.10;22.63;;;12.40;99.90;;;;;;5037377;28;20459;-76
2021/06/14 03:40:32;;;;;;;24.23;21.93;;;12.40;99.90;;;;;;5035999;28;20467;-75
2021/06/14 03:43:01;;;;;;;23.93;21.50;;;12.40;99.90;;;;;;5037109;28;20468;-74
2021/06/14 03:45:30;;;;;;;30.07;23.27;;;12.50;99.90;;;;;;5036311;28;20491;-75
2021/06/14 03:47:57;;;;;;;24.53;22.07;;;12.60;99.90;;;;;;5035070;28;20460;-75
2021/06/14 03:50:25;;;;;;;30.27;23.67;;;12.60;99.90;;;;;;5037839;28;20515;-75
2021/06/14 03:52:52;;;;;;;24.30;21.90;;;12.70;99.90;;;;;;5034393;28;20464;-76
2021/06/14 03:55:20;;;;;;;29.67;22.30;;;12.70;99.90;;;;;;5034631;28;20461;-74
2021/06/14 03:57:48;;;;;;;26.13;20.80;;;12.70;99.90;;;;;;5035525;28;20465;-74
2021/06/14 04:00:17;;;;;;;25.97;21.60;;;12.70;99.90;;;;;;5038166;28;20479;-75
2021/06/14 04:02:45;;;;;;;29.43;22.07;;;12.80;99.90;;;;;;5038618;28;20863;-75
2021/06/14 04:05:13;;;;;;;31.67;21.33;;;12.90;99.90;;;;;;5039305;28;20853;-77
2021/06/14 04:07:40;;;;;;;24.00;20.83;;;12.90;99.90;;;;;;5033087;28;20452;-75
2021/06/14 04:10:08;;;;;;;28.30;21.30;;;12.90;99.90;;;;;;5039864;28;20510;-75
2021/06/14 04:12:36;;;;;;;25.10;21.90;;;12.90;99.90;;;;;;5037621;28;20709;-74
2021/06/14 04:15:03;;;;;;;27.93;21.73;;;13.00;99.90;;;;;;5029157;28;20467;-74
2021/06/14 04:17:31;;;;;;;24.27;21.23;;;13.10;99.90;;;;;;5040732;28;20467;-74
2021/06/14 04:20:00;;;;;;;32.60;22.27;;;13.20;99.90;;;;;;5038591;28;20464;-74
2021/06/14 04:22:27;;;;;;;31.03;21.90;;;13.40;99.90;;;;;;5034824;28;20464;-74
2021/06/14 04:24:54;;;;;;;27.67;22.37;;;13.30;99.90;;;;;;5035117;28;20463;-74
2021/06/14 04:27:20;;;;;;;29.60;23.50;;;13.40;99.90;;;;;;5032803;28;20506;-74
2021/06/14 04:29:47;;;;;;;29.93;20.87;;;13.40;99.90;;;;;;5035806;28;20465;-75
2021/06/14 04:32:14;;;;;;;30.47;20.40;;;13.40;99.90;;;;;;5033235;28;21300;-77
2021/06/14 04:34:41;;;;;;;23.70;20.40;;;13.50;99.90;;;;;;5038642;28;20487;-75
2021/06/14 04:37:10;;;;;;;33.00;21.80;;;13.60;99.90;;;;;;5043364;28;20466;-75
2021/06/14 04:39:36;;;;;;;24.30;21.27;;;13.60;99.90;;;;;;5044704;28;20464;-75
2021/06/14 04:42:04;;;;;;;29.57;20.80;;;13.70;99.90;;;;;;5036544;28;20471;-78
2021/06/14 04:44:32;;;;;;;28.20;22.50;;;13.80;99.90;;;;;;5035280;28;20931;-76
2021/06/14 04:46:59;;;;;;;27.33;21.60;;;13.90;99.90;;;;;;5038940;28;20456;-76
2021/06/14 04:49:26;;;;;;;22.50;20.40;;;14.00;99.90;;;;;;5037971;28;20464;-76
2021/06/14 04:51:53;;;;;;;30.90;21.70;;;14.00;99.90;;;;;;5034055;28;20490;-77
2021/06/14 04:54:21;;;;;;;28.70;22.30;;;14.10;99.90;;;;;;5036080;28;20468;-75
2021/06/14 04:56:48;;;;;;;23.63;20.40;;;14.10;99.90;;;;;;5029938;28;20466;-75
2021/06/14 04:59:15;;;;;;;38.83;21.57;;;14.20;99.90;;;;;;5037200;28;20461;-74
2021/06/14 05:01:43;;;;;;;24.17;20.50;;;14.30;99.90;;;;;;5040351;28;20846;-75
2021/06/14 05:04:10;;;;;;;22.70;20.27;;;14.40;99.90;;;;;;5037172;28;20510;-75
2021/06/14 05:06:37;;;;;;;24.40;22.00;;;14.50;99.90;;;;;;5037150;28;20459;-75
2021/06/14 05:09:03;;;;;;;30.53;21.97;;;14.50;99.90;;;;;;5042398;28;20460;-74
2021/06/14 05:11:32;;;;;;;31.07;22.33;;;14.50;99.90;;;;;;5039915;28;21017;-74
2021/06/14 05:13:59;;;;;;;21.77;19.53;;;14.60;99.90;;;;;;5038755;28;20463;-74
2021/06/14 05:16:27;;;;;;;31.93;21.77;;;14.70;99.90;;;;;;5037070;28;20459;-73
2021/06/14 05:18:53;;;;;;;27.17;21.30;;;14.80;99.90;;;;;;5040333;28;20799;-74
2021/06/14 05:21:20;;;;;;;35.13;21.83;;;14.90;99.90;;;;;;5037732;28;20472;-75
2021/06/14 05:23:48;;;;;;;29.20;21.90;;;15.00;99.90;;;;;;5041225;28;20461;-74
2021/06/14 05:26:15;;;;;;;34.43;22.27;;;15.10;99.90;;;;;;5037428;28;20468;-73
2021/06/14 05:28:44;;;;;;;28.43;21.17;;;15.20;99.90;;;;;;5038849;28;20476;-75
2021/06/14 05:31:11;;;;;;;21.97;19.67;;;15.30;99.90;;;;;;5038768;28;20489;-74
2021/06/14 05:33:38;;;;;;;21.87;19.87;;;15.50;99.90;;;;;;5041940;28;20460;-74
2021/06/14 05:36:06;;;;;;;31.17;19.97;;;15.60;99.90;;;;;;5039239;28;20817;-75
2021/06/14 05:38:33;;;;;;;29.70;20.03;;;15.80;99.90;;;;;;5042792;28;20460;-74
2021/06/14 05:41:00;;;;;;;23.23;20.07;;;15.90;99.90;;;;;;5038857;28;20482;-74
2021/06/14 05:43:27;;;;;;;20.53;18.40;;;16.00;99.90;;;;;;5037298;28;20490;-76
2021/06/14 05:45:55;;;;;;;31.17;19.93;;;16.20;99.90;;;;;;5038065;28;21032;-74
2021/06/14 05:48:22;;;;;;;23.40;19.43;;;16.20;99.90;;;;;;5037348;28;20463;-75
2021/06/14 05:50:49;;;;;;;21.03;18.93;;;16.30;99.90;;;;;;5045064;28;20491;-74
2021/06/14 05:53:16;;;;;;;24.77;20.23;;;16.50;99.90;;;;;;5039466;28;20558;-74
2021/06/14 05:55:43;;;;;;;23.67;19.80;;;16.70;99.90;;;;;;5045710;28;20463;-75
2021/06/14 05:58:11;;;;;;;20.23;18.30;;;16.90;99.90;;;;;;5044504;28;20452;-74
2021/06/14 06:00:38;;;;;;;23.27;20.40;;;17.10;99.90;;;;;;5043149;28;20467;-74
2021/06/14 06:03:06;;;;;;;22.07;19.67;;;17.20;99.90;;;;;;5038327;28;20489;-74
2021/06/14 06:05:33;;;;;;;24.27;21.63;;;17.20;99.90;;;;;;5031871;28;20461;-75
2021/06/14 06:08:02;;;;;;;21.07;18.80;;;17.50;99.90;;;;;;5041286;28;20466;-74
2021/06/14 06:10:29;;;;;;;27.23;19.30;;;17.50;99.90;;;;;;5041522;28;20460;-74
2021/06/14 06:12:55;;;;;;;20.57;18.57;;;17.60;99.90;;;;;;5043380;28;20818;-74
2021/06/14 06:15:22;;;;;;;20.53;18.33;;;17.70;99.90;;;;;;5041242;28;21082;-74
2021/06/14 06:17:49;;;;;;;35.77;19.97;;;17.80;99.90;;;;;;5041903;28;20467;-74
2021/06/14 06:20:18;;;;;;;29.47;19.00;;;18.00;99.90;;;;;;5041367;28;20475;-74
2021/06/14 06:22:46;;;;;;;30.07;19.60;;;18.20;99.90;;;;;;5045538;28;20498;-74
2021/06/14 06:25:15;;;;;;;20.93;18.83;;;18.30;99.90;;;;;;5042002;28;20460;-74
2021/06/14 06:27:43;;;;;;;23.27;20.80;;;18.40;99.90;;;;;;5037922;28;20465;-74
2021/06/14 06:30:11;;;;;;;28.97;18.00;;;18.50;99.90;;;;;;5037514;28;20499;-73
2021/06/14 06:32:39;;;;;;;26.20;19.80;;;18.60;99.90;;;;;;5039243;28;20491;-74
2021/06/14 06:35:06;;;;;;;25.80;18.67;;;18.70;99.90;;;;;;5049917;28;20455;-75
2021/06/14 06:37:37;;;;;;;25.50;19.13;;;18.70;99.90;;;;;;5040642;28;20731;-74
2021/06/14 06:40:05;;;;;;;25.20;18.87;;;18.90;99.90;;;;;;5039135;28;20460;-74
2021/06/14 06:42:31;;;;;;;25.03;19.47;;;18.90;99.90;;;;;;5043326;28;20459;-75
2021/06/14 06:44:58;;;;;;;20.90;18.90;;;19.00;99.90;;;;;;5039451;28;20487;-73
2021/06/14 06:47:26;;;;;;;21.07;19.00;;;19.10;99.90;;;;;;5038072;28;20484;-74
2021/06/14 06:49:53;;;;;;;23.23;18.97;;;19.20;99.90;;;;;;5037011;28;20837;-75
2021/06/14 06:52:19;;;;;;;23.87;18.87;;;19.30;99.90;;;;;;5038271;28;20499;-74
2021/06/14 06:54:47;;;;;;;23.97;20.03;;;19.30;99.90;;;;;;5037061;28;20460;-74
2021/06/14 06:57:16;;;;;;;27.10;19.10;;;19.30;99.90;;;;;;5041298;28;20463;-74
2021/06/14 06:59:43;;;;;;;33.13;18.20;;;19.30;99.90;;;;;;5040922;28;20882;-73
2021/06/14 07:02:11;;;;;;;29.90;19.23;;;19.40;99.90;;;;;;5039532;28;20483;-73
2021/06/14 07:04:38;;;;;;;19.83;18.00;;;19.40;99.90;;;;;;5044871;28;20476;-75
2021/06/14 07:07:06;;;;;;;29.40;18.60;;;19.40;99.90;;;;;;5039983;28;20460;-73
2021/06/14 07:09:33;;;;;;;19.30;17.60;;;19.50;99.90;;;;;;5036132;28;20467;-73
2021/06/14 07:12:02;;;;;;;25.50;18.00;;;19.70;99.90;;;;;;5041468;28;20488;-74
2021/06/14 07:14:29;;;;;;;26.30;17.57;;;20.00;99.90;;;;;;5043387;28;20456;-74
2021/06/14 07:16:56;;;;;;;22.93;18.60;;;20.30;99.90;;;;;;5042537;28;20470;-74
2021/06/14 07:19:22;;;;;;;19.77;18.07;;;20.30;99.90;;;;;;5042162;28;20860;-73
2021/06/14 07:21:50;;;;;;;21.93;17.80;;;20.40;99.90;;;;;;5036265;28;20472;-73
2021/06/14 07:24:16;;;;;;;23.20;18.37;;;20.70;99.90;;;;;;5043957;28;20456;-74
2021/06/14 07:26:43;;;;;;;21.90;18.30;;;21.00;99.90;;;;;;5044775;28;20462;-74
2021/06/14 07:29:12;;;;;;;34.63;18.20;;;21.10;99.90;;;;;;5041467;28;20463;-74
2021/06/14 07:31:39;;;;;;;20.27;17.93;;;21.30;99.90;;;;;;5040759;28;20476;-73
2021/06/14 07:34:08;;;;;;;20.70;17.33;;;21.70;99.90;;;;;;5040682;28;20476;-73
2021/06/14 07:36:35;;;;;;;23.67;18.70;;;21.80;99.90;;;;;;5033886;28;20467;-75
2021/06/14 07:39:03;;;;;;;22.80;17.57;;;21.60;99.90;;;;;;5041944;28;20482;-74
2021/06/14 07:41:30;;;;;;;28.83;17.70;;;21.60;99.90;;;;;;5039364;28;20479;-73
2021/06/14 07:43:58;;;;;;;24.63;17.90;;;21.50;99.90;;;;;;5040744;28;20468;-74
2021/06/14 07:46:26;;;;;;;39.07;20.27;;;21.70;99.90;;;;;;5043405;28;20459;-74
2021/06/14 07:48:53;;;;;;;19.87;17.13;;;21.80;99.90;;;;;;5038311;28;20459;-74
2021/06/14 07:51:21;;;;;;;24.87;17.70;;;22.00;99.90;;;;;;5040729;28;20483;-75
2021/06/14 07:53:50;;;;;;;19.07;17.17;;;22.30;99.90;;;;;;5032391;28;20844;-74
2021/06/14 07:56:18;;;;;;;27.30;17.60;;;22.50;99.90;;;;;;5040927;28;20555;-75
2021/06/14 07:58:45;;;;;;;21.40;16.67;;;22.60;99.90;;;;;;5037187;28;20500;-74
2021/06/14 08:01:12;;;;;;;19.40;17.37;;;22.90;99.90;;;;;;5042941;28;20469;-73
2021/06/14 08:03:40;;;;;;;21.67;17.40;;;23.40;99.90;;;;;;5045570;28;20486;-75
2021/06/14 08:06:07;;;;;;;19.00;16.50;;;24.20;99.90;;;;;;5040150;28;20959;-74
2021/06/14 08:08:36;;;;;;;18.90;16.93;;;24.90;99.90;;;;;;5038955;28;20456;-75
2021/06/14 08:11:03;;;;;;;26.03;17.50;;;25.50;99.90;;;;;;5035015;28;20471;-74
2021/06/14 08:13:30;;;;;;;20.87;16.87;;;26.30;99.90;;;;;;5036109;28;20921;-74
2021/06/14 08:15:59;;;;;;;18.97;17.27;;;26.20;98.40;;;;;;5041879;28;20468;-74
2021/06/14 08:18:34;;;;;;;19.93;17.03;;;25.70;99.90;;;;;;5044420;28;20483;-74
2021/06/14 08:21:17;;;;;;;17.90;16.30;;;26.00;99.60;;;;;;5038783;28;20460;-74
2021/06/14 08:26:27;;;;;;;18.67;17.13;;;26.60;98.00;;;;;;5003542;28;20854;-75
2021/06/14 08:28:56;;;;;;;18.07;16.00;;;27.20;96.80;;;;;;5042761;28;20460;-74
2021/06/14 08:31:24;;;;;;;18.57;16.87;;;27.40;95.20;;;;;;5042306;28;20488;-74
2021/06/14 08:33:51;;;;;;;17.40;16.10;;;27.30;94.80;;;;;;5033327;28;20467;-74
2021/06/14 08:36:21;;;;;;;17.50;16.10;;;27.50;93.20;;;;;;5044457;28;20460;-75
2021/06/14 08:38:49;;;;;;;30.67;16.90;;;28.30;92.20;;;;;;5033919;28;20978;-75
2021/06/14 08:41:16;;;;;;;17.77;16.17;;;29.20;91.10;;;;;;5036559;28;20464;-75
2021/06/14 08:43:44;;;;;;;18.10;16.57;;;29.60;89.60;;;;;;5041273;28;20503;-74
2021/06/14 08:46:12;;;;;;;18.10;16.70;;;29.90;88.80;;;;;;5041362;28;20495;-74
2021/06/14 08:48:41;;;;;;;17.90;16.40;;;30.20;85.40;;;;;;5037771;28;20462;-75
2021/06/14 08:51:09;;;;;;;17.83;16.10;;;30.10;83.20;;;;;;5034916;28;20551;-74
2021/06/14 08:53:37;;;;;;;18.07;16.47;;;30.50;79.40;;;;;;5041025;28;20471;-74
2021/06/14 08:56:05;;;;;;;18.90;17.07;;;30.30;74.90;;;;;;5035784;28;20467;-75
2021/06/14 08:58:33;;;;;;;19.93;17.67;;;30.40;71.40;;;;;;5040922;28;20611;-74
2021/06/14 09:01:00;;;;;;;18.13;16.63;;;29.50;76.50;;;;;;5042347;28;20464;-75
2021/06/14 09:03:29;;;;;;;17.07;15.57;;;30.00;76.30;;;;;;5036655;28;20579;-74
2021/06/14 09:05:56;;;;;;;18.70;17.10;;;30.10;70.20;;;;;;5042448;28;20788;-74
2021/06/14 09:08:25;;;;;;;25.50;16.70;;;30.40;69.40;;;;;;5041383;28;20533;-74
2021/06/14 09:10:56;;;;;;;19.30;17.63;;;30.70;68.70;;;;;;5032320;28;20517;-75
2021/06/14 09:13:24;;;;;;;18.50;16.70;;;31.10;69.50;;;;;;5036384;28;20492;-74
2021/06/14 09:15:55;;;;;;;18.40;15.67;;;32.00;68.00;;;;;;5041178;28;20459;-74
2021/06/14 09:18:25;;;;;;;25.07;16.23;;;32.50;62.90;;;;;;5037041;28;20464;-74
2021/06/14 09:21:11;;;;;;;17.30;15.87;;;32.10;58.90;;;;;;5042202;28;20464;-74
2021/06/14 09:23:47;;;;;;;17.73;16.17;;;32.10;59.30;;;;;;5043150;28;20466;-74
2021/06/14 09:26:28;;;;;;;16.83;15.60;;;33.30;57.90;;;;;;5042068;28;20503;-74
2021/06/14 09:28:58;;;;;;;16.97;15.77;;;32.50;56.10;;;;;;5046783;28;20451;-74
2021/06/14 09:31:29;;;;;;;17.90;16.47;;;32.00;55.10;;;;;;5043452;28;20526;-74
2021/06/14 09:33:56;;;;;;;16.70;15.50;;;31.80;53.20;;;;;;5044339;28;20464;-74
2021/06/14 09:36:24;;;;;;;17.20;15.90;;;32.00;53.10;;;;;;5048163;28;20465;-74
2021/06/14 09:38:51;;;;;;;17.83;15.50;;;31.80;51.70;;;;;;5045615;28;21142;-74
2021/06/14 09:41:20;;;;;;;17.40;16.00;;;31.20;51.60;;;;;;5042679;28;20467;-74
2021/06/14 09:43:50;;;;;;;17.03;15.87;;;30.90;52.30;;;;;;5042390;28;20570;-74
2021/06/14 09:46:26;;;;;;;17.77;16.47;;;31.40;53.30;;;;;;5040242;28;20469;-73
2021/06/14 09:48:54;;;;;;;16.57;15.57;;;32.20;53.50;;;;;;5043024;28;20490;-73
2021/06/14 09:51:21;;;;;;;17.33;16.10;;;32.40;51.60;;;;;;5047232;28;20459;-74
2021/06/14 09:53:51;;;;;;;17.47;16.27;;;32.60;51.60;;;;;;5039669;28;20762;-73
2021/06/14 09:56:20;;;;;;;17.47;16.37;;;33.00;51.20;;;;;;5038320;28;21006;-74
2021/06/14 09:58:51;;;;;;;16.63;15.33;;;32.30;51.60;;;;;;5033246;28;20463;-74
2021/06/14 10:01:28;;;;;;;17.10;16.00;;;32.90;51.70;;;;;;5044978;28;20553;-74
2021/06/14 10:03:57;;;;;;;16.77;15.17;;;33.30;51.30;;;;;;5045422;28;20922;-74
2021/06/14 10:06:30;;;;;;;17.27;15.80;;;33.50;51.10;;;;;;5036407;28;20458;-73
2021/06/14 10:08:57;;;;;;;17.23;16.00;;;33.30;51.00;;;;;;5039917;28;20494;-73
2021/06/14 10:11:24;;;;;;;17.53;15.90;;;32.00;51.30;;;;;;5042583;28;20476;-74
2021/06/14 10:13:52;;;;;;;17.50;16.30;;;31.60;51.70;;;;;;5045940;28;20780;-73
2021/06/14 10:16:24;;;;;;;18.40;16.80;;;31.20;53.90;;;;;;5052557;28;20718;-74
2021/06/14 10:18:54;;;;;;;18.50;16.87;;;32.40;53.20;;;;;;5044476;28;20507;-74
2021/06/14 10:21:27;;;;;;;22.80;16.77;;;32.60;52.20;;;;;;5039033;28;20517;-74
2021/06/14 10:23:56;;;;;;;16.10;15.07;;;32.90;51.80;;;;;;5040230;28;20529;-73
2021/06/14 10:26:24;;;;;;;18.40;16.80;;;33.00;52.10;;;;;;5043419;28;20448;-73
2021/06/14 10:28:52;;;;;;;16.70;15.37;;;34.60;51.00;;;;;;5042685;28;21474;-74
2021/06/14 10:31:20;;;;;;;20.77;16.80;;;35.30;49.50;;;;;;5041105;28;20460;-72
2021/06/14 10:33:49;;;;;;;18.23;16.63;;;35.00;49.30;;;;;;5043083;28;20585;-74
2021/06/14 10:36:17;;;;;;;19.53;16.30;;;35.20;49.50;;;;;;5036787;28;20882;-73
2021/06/14 10:38:46;;;;;;;17.27;16.27;;;34.60;49.90;;;;;;5038853;28;20470;-74
2021/06/14 10:41:13;;;;;;;17.40;16.30;;;35.10;48.70;;;;;;5041246;28;20457;-73
2021/06/14 10:43:40;;;;;;;17.43;16.37;;;34.10;49.10;;;;;;5045381;28;20551;-75
2021/06/14 10:46:12;;;;;;;17.20;15.50;;;34.20;49.30;;;;;;5040432;28;20873;-72
2021/06/14 10:48:39;;;;;;;17.77;16.27;;;34.50;47.20;;;;;;5039082;28;20459;-74
2021/06/14 10:51:14;;;;;;;17.60;16.07;;;34.50;47.30;;;;;;5039881;28;20471;-74
2021/06/14 10:53:42;;;;;;;17.10;15.90;;;34.80;46.80;;;;;;5042234;28;20571;-75
2021/06/14 10:56:09;;;;;;;16.47;15.53;;;34.40;47.00;;;;;;5039296;28;20487;-74
2021/06/14 10:58:36;;;;;;;17.00;16.10;;;33.80;47.40;;;;;;5045512;28;20464;-74
2021/06/14 11:01:12;;;;;;;16.83;15.60;;;34.30;48.00;;;;;;5047254;28;20459;-73
2021/06/14 11:03:44;;;;;;;15.70;14.90;;;35.10;48.20;;;;;;5045480;28;20708;-75
2021/06/14 11:06:20;;;;;;;17.40;16.10;;;34.90;47.80;;;;;;5039142;28;20495;-74
2021/06/14 11:09:11;;;;;;;16.67;15.43;;;35.30;47.10;;;;;;5038980;28;20498;-74
2021/06/14 11:11:47;;;;;;;17.63;16.20;;;35.00;47.00;;;;;;5035922;28;21017;-74
2021/06/14 11:14:14;;;;;;;16.47;15.37;;;35.20;45.80;;;;;;5035724;28;20514;-74
2021/06/14 11:16:42;;;;;;;17.30;15.53;;;34.80;44.90;;;;;;5046601;28;20468;-75
2021/06/14 11:19:11;;;;;;;17.70;16.20;;;35.10;45.90;;;;;;5048240;28;21003;-74
2021/06/14 11:21:40;;;;;;;16.20;15.13;;;35.20;46.20;;;;;;5039726;28;21078;-74
2021/06/14 11:24:10;;;;;;;16.90;15.80;;;34.70;45.50;;;;;;5043359;28;20460;-73
2021/06/14 11:26:38;;;;;;;17.03;16.03;;;34.60;45.60;;;;;;5042009;28;20464;-74
2021/06/14 11:29:16;;;;;;;17.50;15.83;;;35.00;47.10;;;;;;5042266;28;20461;-75
2021/06/14 11:32:00;;;;;;;17.47;16.17;;;35.20;45.60;;;;;;5042299;28;20683;-74
2021/06/14 11:34:28;;;;;;;15.97;15.00;;;36.20;45.50;;;;;;5042666;28;20998;-73
2021/06/14 11:36:57;;;;;;;17.57;16.10;;;36.10;45.00;;;;;;5034979;28;20832;-74
2021/06/14 11:39:26;;;;;;;18.63;16.43;;;36.50;44.10;;;;;;5045894;28;21108;-75
2021/06/14 11:41:55;;;;;;;16.70;15.70;;;36.50;44.70;;;;;;5044100;28;20471;-74
2021/06/14 11:44:25;;;;;;;18.13;16.83;;;36.50;45.30;;;;;;5038592;28;21002;-75
2021/06/14 11:46:57;;;;;;;17.33;16.23;;;36.60;44.40;;;;;;5041206;28;20870;-73
2021/06/14 11:49:32;;;;;;;16.97;15.70;;;36.80;44.10;;;;;;5039173;28;20468;-73
2021/06/14 11:51:59;;;;;;;16.87;15.67;;;37.00;43.20;;;;;;5037746;28;20471;-74
2021/06/14 11:54:26;;;;;;;17.50;16.27;;;37.40;44.10;;;;;;5042522;28;20487;-75
2021/06/14 11:57:00;;;;;;;17.87;16.60;;;37.50;43.50;;;;;;5034522;28;20461;-73
2021/06/14 11:59:34;;;;;;;17.07;16.17;;;37.20;42.60;;;;;;5035082;28;20967;-73
2021/06/14 12:02:03;;;;;;;28.27;16.53;;;37.40;41.50;;;;;;5041017;28;20457;-74
2021/06/14 12:04:30;;;;;;;17.20;15.80;;;36.80;42.80;;;;;;5033586;28;20468;-73
2021/06/14 12:07:02;;;;;;;16.63;15.50;;;36.60;43.10;;;;;;5040553;28;20878;-73
2021/06/14 12:09:30;;;;;;;17.80;16.23;;;36.50;41.50;;;;;;5042885;28;20466;-73
2021/06/14 12:11:59;;;;;;;16.70;15.50;;;36.60;41.90;;;;;;5042661;28;20514;-74
2021/06/14 12:16:59;;;;;;;17.63;16.73;;;38.20;39.60;;;;;;5042890;28;20536;-73
2021/06/14 12:19:32;;;;;;;17.53;16.33;;;39.00;39.40;;;;;;5057315;28;20463;-75
2021/06/14 12:22:02;;;;;;;17.97;16.57;;;39.40;39.00;;;;;;5061471;28;20459;-73
2021/06/14 12:24:30;;;;;;;17.20;16.10;;;39.20;37.40;;;;;;5059000;28;20463;-73
2021/06/14 12:27:02;;;;;;;16.63;15.63;;;37.70;37.90;;;;;;5066075;28;20553;-73
2021/06/14 12:29:29;;;;;;;17.20;16.20;;;37.80;38.40;;;;;;5060351;28;20526;-74
2021/06/14 12:32:06;;;;;;;16.33;15.37;;;38.40;37.10;;;;;;5057895;28;20462;-73
2021/06/14 12:34:37;;;;;;;16.97;15.57;;;38.60;37.10;;;;;;5057230;28;20543;-73
2021/06/14 12:37:09;;;;;;;17.80;16.60;;;37.50;37.10;;;;;;5058773;28;20463;-73
2021/06/14 12:39:36;;;;;;;16.30;15.33;;;38.50;37.10;;;;;;5055388;28;20992;-74
2021/06/14 12:42:04;;;;;;;17.03;15.90;;;39.10;37.00;;;;;;5062090;28;20463;-75